createdAt,value
2022-08-28T00:03:13.562Z,3.85
2022-08-28T00:08:18.339Z,3.35
2022-08-28T00:13:23.350Z,1.70
2022-08-28T00:18:26.484Z,2.33
2022-08-28T00:23:38.782Z,2.55
2022-08-28T00:28:47.305Z,2.95
2022-08-28T00:33:50.905Z,2.55
2022-08-28T00:38:53.614Z,2.95
2022-08-28T00:44:11.329Z,2.35
2022-08-28T00:49:15.083Z,3.10
2022-08-28T00:54:19.198Z,3.78
2022-08-28T00:59:26.915Z,4.45
2022-08-28T01:04:32.406Z,3.95
2022-08-28T01:09:36.633Z,3.67
2022-08-28T01:19:45.299Z,3.35
2022-08-28T01:24:50.706Z,4.18
2022-08-28T01:29:53.761Z,2.30
2022-08-28T01:34:56.781Z,4.93
2022-08-28T01:40:01.518Z,3.25
2022-08-28T01:45:04.448Z,6.30
2022-08-28T01:50:08.243Z,4.15
2022-08-28T01:55:12.732Z,5.40
2022-08-28T02:00:16.194Z,7.38
2022-08-28T02:05:19.465Z,4.30
2022-08-28T02:10:25.368Z,5.47
2022-08-28T02:15:28.787Z,3.97
2022-08-28T02:20:32.151Z,5.47
2022-08-28T02:25:36.741Z,4.05
2022-08-28T02:30:40.181Z,6.43
2022-08-28T02:40:47.072Z,6.18
2022-08-28T02:45:49.811Z,5.10
2022-08-28T02:50:52.529Z,4.68
2022-08-28T02:55:57.233Z,5.20
2022-08-28T03:01:00.158Z,7.15
2022-08-28T03:06:03.637Z,4.88
2022-08-28T03:11:07.644Z,5.40
2022-08-28T03:16:10.313Z,5.38
2022-08-28T03:21:13.186Z,7.40
2022-08-28T03:26:18.672Z,7.35
2022-08-28T03:31:23.594Z,6.25
2022-08-28T03:36:27.805Z,8.00
2022-08-28T03:41:32.272Z,6.03
2022-08-28T03:46:34.906Z,6.80
2022-08-28T03:51:37.529Z,6.97
2022-08-28T03:56:42.363Z,6.27
2022-08-28T04:01:45.198Z,5.78
2022-08-28T04:06:47.933Z,5.72
2022-08-28T04:11:52.953Z,9.10
2022-08-28T04:16:58.595Z,7.50
2022-08-28T04:22:04.212Z,6.95
2022-08-28T04:27:08.471Z,9.20
2022-08-28T04:32:11.329Z,8.27
2022-08-28T04:37:14.064Z,9.20
2022-08-28T04:42:18.172Z,10.03
2022-08-28T04:47:23.704Z,10.65
2022-08-28T04:52:26.629Z,10.88
2022-08-28T04:57:35.699Z,8.60
2022-08-28T05:02:39.695Z,8.63
2022-08-28T05:07:42.424Z,7.97
2022-08-28T05:12:49.246Z,9.07
2022-08-28T05:17:51.906Z,8.48
2022-08-28T05:22:54.671Z,9.00
2022-08-28T05:27:59.121Z,7.90
2022-08-28T05:33:02.086Z,7.65
2022-08-28T05:38:05.205Z,7.13
2022-08-28T05:43:09.277Z,7.57
2022-08-28T05:48:14.254Z,6.18
2022-08-28T05:53:18.261Z,6.57
2022-08-28T05:58:32.134Z,7.78
2022-08-28T06:03:36.231Z,15.48
2022-08-28T06:08:39.545Z,8.45
2022-08-28T06:14:03.944Z,8.48
2022-08-28T06:19:07.902Z,7.75
2022-08-28T06:24:12.203Z,11.18
2022-08-28T06:29:18.605Z,12.88
2022-08-28T06:34:24.493Z,15.98
2022-08-28T06:39:27.817Z,16.17
2022-08-28T06:44:32.497Z,14.32
2022-08-28T06:49:35.845Z,19.95
2022-08-28T06:54:38.661Z,17.10
2022-08-28T06:59:44.729Z,21.40
2022-08-28T07:04:47.427Z,21.92
2022-08-28T07:09:50.402Z,25.00
2022-08-28T07:14:54.382Z,17.92
2022-08-28T07:19:57.026Z,21.60
2022-08-28T07:25:00.035Z,21.80
2022-08-28T07:30:04.439Z,23.65
2022-08-28T07:35:07.808Z,21.38
2022-08-28T07:40:15.158Z,21.08
2022-08-28T07:45:19.387Z,19.05
2022-08-28T07:50:22.239Z,21.65
2022-08-28T07:55:27.858Z,17.58
2022-08-28T08:00:32.611Z,17.88
2022-08-28T08:05:35.469Z,19.40
2022-08-28T08:10:38.236Z,19.98
2022-08-28T08:15:43.606Z,19.60
2022-08-28T08:20:47.237Z,19.95
2022-08-28T08:25:57.005Z,15.93
2022-08-28T08:31:08.894Z,19.33
2022-08-28T08:36:12.765Z,18.17
2022-08-28T08:41:18.493Z,18.67
2022-08-28T08:46:27.377Z,18.75
2022-08-28T08:51:38.341Z,20.48
2022-08-28T08:56:42.910Z,21.20
2022-08-28T09:01:53.309Z,20.02
2022-08-28T09:06:59.499Z,21.77
2022-08-28T09:12:03.639Z,21.98
2022-08-28T09:17:08.181Z,19.10
2022-08-28T09:22:10.876Z,32.65
2022-08-28T09:27:23.346Z,21.23
2022-08-28T09:32:32.151Z,22.98
2022-08-28T09:37:36.624Z,25.10
2022-08-28T09:48:03.584Z,24.38
2022-08-28T09:53:16.940Z,24.98
2022-08-28T09:58:19.568Z,26.98
2022-08-28T10:03:27.699Z,30.42
2022-08-28T10:08:37.211Z,31.23
2022-08-28T10:13:45.025Z,34.15
2022-08-28T10:18:52.058Z,27.67
2022-08-28T10:24:05.386Z,33.03
2022-08-28T10:29:15.148Z,32.22
2022-08-28T10:34:28.500Z,32.05
2022-08-28T10:39:38.880Z,33.83
2022-08-28T10:44:45.272Z,33.90
2022-08-28T10:49:51.461Z,34.05
2022-08-28T10:54:55.978Z,28.45
2022-08-28T11:00:00.226Z,32.95
2022-08-28T11:05:05.347Z,28.73
2022-08-28T11:10:19.891Z,30.58
2022-08-28T11:15:42.294Z,25.73
2022-08-28T11:20:57.832Z,28.10
2022-08-28T11:26:03.537Z,30.85
2022-08-28T11:31:29.381Z,27.65
2022-08-28T11:36:50.855Z,24.33
2022-08-28T11:42:13.684Z,27.42
2022-08-28T11:47:35.050Z,23.17
2022-08-28T11:52:45.947Z,24.30
2022-08-28T11:57:55.297Z,30.40
2022-08-28T12:08:05.865Z,24.35
2022-08-28T12:13:09.629Z,26.95
2022-08-28T12:18:17.319Z,24.20
2022-08-28T12:23:37.141Z,26.60
2022-08-28T12:28:44.998Z,23.08
2022-08-28T12:33:50.912Z,21.95
2022-08-28T12:38:56.025Z,22.75
2022-08-28T12:43:59.373Z,23.10
2022-08-28T12:49:03.900Z,18.77
2022-08-28T12:54:10.383Z,17.40
2022-08-28T12:59:27.492Z,18.65
2022-08-28T13:04:34.333Z,18.95
2022-08-28T13:09:38.816Z,14.90
2022-08-28T13:14:43.526Z,15.45
2022-08-28T13:19:46.236Z,15.68
2022-08-28T13:29:57.133Z,16.50
2022-08-28T13:35:13.079Z,19.80
2022-08-28T13:40:44.478Z,20.77
2022-08-28T13:45:44.048Z,20.48
2022-08-28T13:50:48.730Z,19.67
2022-08-28T13:55:52.066Z,19.60
2022-08-28T14:05:58.483Z,18.20
2022-08-28T14:11:01.327Z,18.23
2022-08-28T14:16:05.937Z,18.25
2022-08-28T14:21:10.109Z,21.60
2022-08-28T14:26:12.661Z,17.65
2022-08-28T14:36:21.386Z,15.10
2022-08-28T14:41:26.329Z,17.48
2022-08-28T14:46:30.507Z,17.58
2022-08-28T14:51:36.316Z,16.83
2022-08-28T14:56:39.693Z,17.70
2022-08-28T15:01:42.544Z,17.52
2022-08-28T15:06:46.763Z,10.75
2022-08-28T15:11:49.294Z,14.77
2022-08-28T15:16:53.451Z,10.27
2022-08-28T15:21:58.477Z,10.35
2022-08-28T15:27:01.499Z,13.82
2022-08-28T15:32:04.991Z,9.50
2022-08-28T15:37:09.129Z,10.43
2022-08-28T15:42:16.240Z,9.13
2022-08-28T15:47:19.120Z,14.60
2022-08-28T15:52:26.291Z,13.32
2022-08-28T15:57:29.240Z,12.25
2022-08-28T16:02:31.947Z,14.98
2022-08-28T16:12:40.109Z,12.75
2022-08-28T16:17:44.429Z,13.32
2022-08-28T16:22:47.381Z,16.17
2022-08-28T16:32:55.037Z,17.27
2022-08-28T16:37:58.295Z,16.85
2022-08-28T16:43:01.038Z,16.52
2022-08-28T16:48:06.300Z,15.25
2022-08-28T16:53:09.895Z,17.00
2022-08-28T17:03:27.172Z,11.93
2022-08-28T17:08:39.087Z,21.08
2022-08-28T17:13:42.202Z,12.05
2022-08-28T17:23:52.838Z,19.50
2022-08-28T17:28:55.663Z,16.70
2022-08-28T17:33:59.428Z,15.48
2022-08-28T17:39:04.982Z,20.60
2022-08-28T17:44:07.948Z,26.05
2022-08-28T17:49:10.532Z,20.42
2022-08-28T17:54:16.951Z,20.02
2022-08-28T17:59:20.965Z,21.58
2022-08-28T18:04:24.717Z,20.08
2022-08-28T18:09:29.197Z,23.17
2022-08-28T18:14:31.923Z,20.50
2022-08-28T18:19:35.765Z,20.25
2022-08-28T18:24:40.505Z,19.85
2022-08-28T18:29:43.203Z,23.65
2022-08-28T18:34:45.865Z,25.48
2022-08-28T18:39:52.049Z,21.93
2022-08-28T18:44:57.208Z,21.50
2022-08-28T18:50:00.217Z,23.45
2022-08-28T18:55:10.766Z,28.02
2022-08-28T19:00:15.724Z,26.13
2022-08-28T19:05:18.608Z,31.38
2022-08-28T19:10:33.401Z,27.48
2022-08-28T19:15:38.402Z,26.67
2022-08-28T19:20:41.243Z,23.05
2022-08-28T19:25:45.635Z,19.55
2022-08-28T19:30:48.850Z,26.70
2022-08-28T19:35:51.986Z,27.60
2022-08-28T19:40:56.466Z,27.35
2022-08-28T19:46:00.428Z,20.55
2022-08-28T19:51:04.756Z,23.75
2022-08-28T19:56:17.085Z,23.25
2022-08-28T20:01:20.717Z,28.75
2022-08-28T20:06:23.404Z,22.25
2022-08-28T20:11:30.431Z,23.83
2022-08-28T20:16:35.316Z,28.63
2022-08-28T20:21:39.885Z,28.25
2022-08-28T20:26:43.943Z,30.73
2022-08-28T20:31:48.300Z,23.92
2022-08-28T20:36:51.486Z,22.60
2022-08-28T20:41:55.911Z,28.95
2022-08-28T20:46:58.804Z,23.77
2022-08-28T20:52:01.897Z,26.77
2022-08-28T20:57:07.449Z,22.03
2022-08-28T21:02:11.498Z,35.40
2022-08-28T21:07:14.764Z,26.00
2022-08-28T21:12:19.242Z,28.50
2022-08-28T21:17:29.012Z,30.05
2022-08-28T21:22:36.070Z,25.48
2022-08-28T21:27:40.425Z,31.63
2022-08-28T21:32:43.231Z,32.88
2022-08-28T21:37:46.003Z,37.40
2022-08-28T21:42:50.159Z,32.20
2022-08-28T21:47:52.800Z,34.55
2022-08-28T21:52:55.445Z,32.13
2022-08-28T21:57:59.455Z,33.93
2022-08-28T22:03:02.468Z,35.45
2022-08-28T22:08:05.157Z,34.85
2022-08-28T22:13:10.832Z,32.47
2022-08-28T22:18:14.499Z,35.45
2022-08-28T22:23:17.837Z,32.63
2022-08-28T22:28:22.439Z,27.38
2022-08-28T22:33:25.117Z,30.40
2022-08-28T22:38:28.086Z,32.17
2022-08-28T22:43:32.560Z,32.22
2022-08-28T22:48:39.610Z,34.67
2022-08-28T22:53:43.732Z,30.43
2022-08-28T22:58:47.798Z,37.53
2022-08-28T23:03:50.559Z,33.28
2022-08-28T23:08:57.656Z,32.78
2022-08-28T23:14:01.687Z,35.47
2022-08-28T23:19:08.638Z,32.30
2022-08-28T23:24:12.640Z,34.28
2022-08-28T23:29:17.873Z,31.35
2022-08-28T23:34:21.491Z,30.05
2022-08-28T23:39:24.935Z,30.38
2022-08-28T23:44:31.943Z,27.55
2022-08-28T23:49:35.360Z,34.47
2022-08-28T23:54:45.207Z,31.27
2022-08-28T23:59:49.898Z,33.30
